September 25, 2022

Time Code Weather Temp. Visibility Ceiling Wind METAR/SPECI
1:00 am
V
57 °F 15 mi - 320° 320° 4 kt METAR CYVR 250800Z 32004KT 15SM SKC 14/14 A3021 RMK SLP231
12:00 am
V
59 °F 15 mi - 300° 300° 7 kt METAR CYVR 250700Z 30007KT 15SM FEW250 15/15 A3021 RMK CI1 SLP233

September 24, 2022

Time Code Weather Temp. Visibility Ceiling Wind METAR/SPECI
11:00 pm
V
59 °F 15 mi - 310° 310° 9 kt METAR CYVR 250600Z 31009KT 15SM FEW240 15/15 A3022 RMK CI1 SLP235
10:00 pm
V
59 °F 15 mi - 310° 310° 6 kt METAR CYVR 250500Z 31006KT 15SM FEW240 15/15 A3021 RMK CI2 SLP234
9:00 pm
V
59 °F 15 mi - 290° 290° 8 kt METAR CYVR 250400Z 29008KT 15SM FEW240 15/15 A3021 RMK CI2 SLP234
8:00 pm
V
57 °F 15 mi - 300° 300° 6 kt METAR CYVR 250300Z 30006KT 15SM FEW090 FEW210 SCT240 14/14 A3021 RMK AC1CC1CI2 AC TR CC TR CONTRAILS SLP231
7:00 pm
V
61 °F 20 mi - 300° 300° 7 kt METAR CYVR 250200Z 30007KT 20SM FEW210 SCT230 SCT240 16/15 A3021 RMK CC1CI3CI1 CC TR CONTRAILS SLP231
6:00 pm
V
63 °F 20 mi 23,000 ft 280° 280° 7 kt METAR CYVR 250100Z 28007KT 20SM FEW210 BKN230 17/15 A3021 RMK CC1CI4 SLP233
5:00 pm
V
64 °F 20 mi - 290° 290° 8 kt METAR CYVR 250000Z 29008KT 20SM FEW210 SCT230 18/14 A3022 RMK CC1CI4 CC TR SLP236 DENSITY ALT 100FT
4:00 pm
V
66 °F 20 mi - 300° 300° 10 kt METAR CYVR 242300Z 30010KT 20SM FEW060 FEW210 SCT230 19/14 A3024 RMK CU1CC1CI2 CU TR SLP242 DENSITY ALT 200FT
3:00 pm
V
66 °F 20 mi - 290° 290° 10 kt METAR CYVR 242200Z 29010KT 20SM FEW060 FEW110 SCT230 19/14 A3025 RMK CU1AC1CI3 CU TR AC TR SLP247 DENSITY ALT 100FT
2:00 pm
V
66 °F 20 mi - 290° 290° 10 kt METAR CYVR 242100Z 29010KT 20SM FEW060 FEW230 19/15 A3027 RMK CU1CI2 CU TR SLP251 DENSITY ALT 100FT
1:00 pm
V
66 °F 20 mi - 280° 280° 9 kt METAR CYVR 242000Z 28009KT 20SM FEW060 FEW210 SCT230 19/13 A3027 RMK CU1CC1CI3 CU TR CC TR SLP252 DENSITY ALT 100FT
12:00 pm
V
64 °F 20 mi 23,000 ft 300° 300° 10 kt METAR CYVR 241900Z 30010KT 20SM FEW060 FEW210 BKN230 18/14 A3027 RMK CU1CC1CI5 CU TR CC TR SLP254
11:00 am
V
64 °F 20 mi 23,000 ft 300° 300° 8 kt METAR CYVR 241800Z 30008KT 20SM FEW060 BKN230 18/14 A3028 RMK CU1CI6 CU TR SLP255
10:00 am
V
61 °F 20 mi 23,000 ft 310° 310° 10 kt METAR CYVR 241700Z 31010KT 20SM FEW060 FEW170 BKN230 16/14 A3027 RMK CU1AC2CI4 CU TR SLP253
9:00 am
V
61 °F 20 mi 17,000 ft Var 000° 0 kt METAR CYVR 241600Z 00000KT 20SM FEW060 SCT110 BKN170 BKN230 16/14 A3026 RMK CF1AC3AC2CI1 CF TR SLP250
8:00 am
V
57 °F 20 mi 11,000 ft Var 000° 0 kt METAR CYVR 241500Z 00000KT 20SM FEW060 BKN110 BKN230 14/14 A3024 RMK SC1AC5CI1 SC TR SLP243
7:00 am
V
57 °F 15 mi 11,000 ft Var 000° 0 kt METAR CYVR 241400Z 00000KT 15SM FEW060 BKN110 14/14 A3023 RMK SC1AC6 SLP238
6:00 am
V
55 °F 15 mi - 190° 190° 2 kt METAR CYVR 241300Z 19002KT 15SM FEW050 SCT110 13/13 A3021 RMK SC1AC3 SLP234
5:00 am
V
57 °F 15 mi 12,000 ft Var 000° 0 kt METAR CYVR 241200Z 00000KT 15SM FEW053 SCT110 BKN120 14/13 A3020 RMK SC1AC4AC2 SC TR SLP230
4:00 am
V
55 °F 15 mi - Var 000° 0 kt METAR CYVR 241100Z 00000KT 15SM FEW055 SCT120 13/13 A3021 RMK SC1AC3 SLP231
3:00 am
V
57 °F 15 mi 12,000 ft 080° 080° 2 kt METAR CYVR 241000Z 08002KT 15SM SCT055 BKN120 14/14 A3020 RMK SC4AC2 SLP228
2:00 am
V
55 °F 15 mi - 090° 090° 4 kt METAR CYVR 240900Z 09004KT 15SM FEW055 SCT063 SCT160 13/13 A3019 RMK SC1SC2AC1 AC TR SLP227
1:00 am
V
55 °F 15 mi - 100° 100° 5 kt METAR CYVR 240800Z 10005KT 15SM FEW048 FEW055 SCT063 SCT160 13/13 A3017 RMK SC1SC2SC2AC1 SC TR AC TR SLP220
12:00 am
V
59 °F 15 mi 6,200 ft 070° 070° 6 kt METAR CYVR 240700Z 07006KT 15SM FEW046 FEW053 BKN062 BKN160 15/14 A3018 RMK SC1SC2SC3AC2 SC TR SLP222

September 23, 2022

Time Code Weather Temp. Visibility Ceiling Wind METAR/SPECI
11:00 pm
V
59 °F 15 mi - 070° 070° 5 kt METAR CYVR 240600Z 07005KT 15SM FEW046 SCT062 15/13 A3018 RMK SC1SC3 SLP221
10:00 pm
V
59 °F 15 mi - 070° 070° 7 kt METAR CYVR 240500Z 07007KT 15SM FEW035 SCT056 15/13 A3016 RMK SC1SC4 SC TR SLP216
9:00 pm
V
59 °F 15 mi 6,700 ft 070° 070° 7 kt METAR CYVR 240400Z 07007KT 15SM FEW034 FEW055 BKN067 BKN150 15/14 A3016 RMK SC1SC1AC3AC1 AC TR SLP214
8:00 pm
V
61 °F 12 mi 6,400 ft 060° 060° 8 kt METAR CYVR 240300Z 06008KT 12SM FEW035 SCT044 BKN064 BKN150 16/13 A3015 RMK SC2SC1SC3AC1 AC TR SLP212
7:00 pm
V
61 °F 10 mi 6,000 ft 070° 070° 6 kt METAR CYVR 240200Z 07006KT 10SM FEW024 SCT034 BKN060 16/13 A3014 RMK CU1SC4SC3 CU TR SH DIST NW SLP210
6:00 pm
V
61 °F 10 mi 6,000 ft 070° 070° 7 kt METAR CYVR 240100Z 07007KT 060V120 10SM SCT032 OVC060 16/13 A3015 RMK SC3SC5 SLP211
5:46 pm
V
61 °F 10 mi 6,000 ft 080° 080° 7 kt METAR CYVR 240046Z 08007KT 10SM SCT031 BKN060 BKN070 16/14 A3015 RMK SC3SC4AC1 AC TR SLP211
5:32 pm
V
61 °F 10 mi 4,800 ft 090° 090° 8 kt METAR CYVR 240032Z 09008KT 10SM -RA SCT032 BKN048 BKN067 16/14 A3014 RMK SC3SC3AC1 SLP210
5:00 pm
V
63 °F 15 mi 4,300 ft 080° 080° 8 kt METAR CYVR 240000Z 08008KT 15SM SCT035 BKN043 17/13 A3014 RMK SC3SC4 SLP209
4:00 pm
V
63 °F 15 mi 5,100 ft 110° 110° 9 kt METAR CYVR 232300Z 11009KT 15SM SCT037 OVC051 17/12 A3015 RMK SC3SC5 SLP211
3:00 pm
V
63 °F 10 mi 4,500 ft 110° 110° 11 kt METAR CYVR 232200Z 11011KT 10SM SCT026 OVC045 17/12 A3015 RMK SC3SC5 SLP212
2:00 pm
V
63 °F 10 mi 3,200 ft 130° 130° 11 kt METAR CYVR 232100Z 13011KT 10SM BKN032 OVC046 17/12 A3016 RMK SC5SC3 SLP215
1:27 pm
V
63 °F 10 mi 4,200 ft 110° 110° 11 kt METAR CYVR 232027Z 11011KT 10SM BKN042 BKN065 OVC090 17/13 A3016 RMK SC5SC2AC1 SLP214
1:00 pm
M
61 °F 4 mi 2,000 ft 110° 110° 9 kt METAR CYVR 232000Z 11009KT 4SM -RA BR BKN020 BKN033 OVC090 16/14 A3016 RMK SC5SC2AC1 SLP216
12:29 pm
V
61 °F 10 mi 4,000 ft 120° 120° 10 kt METAR CYVR 231929Z 12010KT 10SM -RA BKN040 OVC090 16/13 A3016 RMK SC7AC1 SLP214
12:00 pm
V
61 °F 15 mi 4,000 ft 120° 120° 12 kt METAR CYVR 231900Z 12012KT 15SM BKN040 OVC090 16/13 A3016 RMK SC6AC2 SLP214
11:00 am
V
61 °F 15 mi 4,000 ft 120° 120° 9 kt METAR CYVR 231800Z 12009KT 15SM BKN040 OVC090 16/13 A3015 RMK SC5AC3 SLP213
10:00 am
V
59 °F 15 mi 4,000 ft 110° 110° 11 kt METAR CYVR 231700Z 11011KT 15SM FEW015 BKN040 OVC090 15/13 A3015 RMK SC2SC4AC2 SLP211
9:00 am
V
59 °F 15 mi 7,000 ft 110° 110° 9 kt METAR CYVR 231600Z 11009KT 15SM FEW060 BKN070 BKN090 15/14 A3013 RMK SC2AC3AC2 SLP206
8:00 am
V
57 °F 15 mi 18,000 ft 100° 100° 8 kt METAR CYVR 231500Z 10008KT 15SM SCT061 BKN180 BKN220 14/14 A3012 RMK SC3AC4CC1 CC TR SLP202
7:17 am
V
57 °F 15 mi 6,700 ft 100° 100° 8 kt METAR CYVR 231417Z 10008KT 15SM FEW050 BKN067 OVC082 14/13 A3011 RMK SC2AC4AC2 SLP199
7:00 am
V
57 °F 15 mi 7,000 ft 090° 090° 8 kt METAR CYVR 231400Z 09008KT 15SM -RA FEW050 OVC070 14/13 A3011 RMK SC2AC6 SLP198
6:00 am
V
57 °F 15 mi 7,100 ft 090° 090° 9 kt METAR CYVR 231300Z 09009KT 15SM FEW051 BKN071 OVC080 14/13 A3010 RMK SC2AC4AC2 SLP195
5:00 am
V
57 °F 15 mi 7,900 ft 100° 100° 7 kt METAR CYVR 231200Z 10007KT 15SM SCT054 BKN079 OVC090 14/13 A3009 RMK SC3AC3AC2 SLP191
4:00 am
V
57 °F 15 mi 9,000 ft 110° 110° 7 kt METAR CYVR 231100Z 11007KT 15SM SCT054 BKN090 BKN100 14/13 A3008 RMK SC3AC2AC1 SLP187
3:00 am
V
57 °F 15 mi 11,000 ft 100° 100° 9 kt METAR CYVR 231000Z 10009KT 15SM FEW052 SCT090 BKN110 BKN150 14/12 A3008 RMK SC2AC2AC2AC1 SLP187
2:00 am
V
57 °F 15 mi 16,000 ft 100° 100° 7 kt METAR CYVR 230900Z 10007KT 15SM FEW050 SCT110 BKN160 14/13 A3007 RMK SC2AC2AC3 SLP185
Older data

We and third parties follow your internet behavior on our website with cookies. If you continue, we assume you agree with our cookie policy. Learn more